sensor_id;sensor_type;location;lat;lon;timestamp;P1;durP1;ratioP1;P2;durP2;ratioP2
25207;SDS011;13153;52.316;21.166;2023-06-04T00:01:57;25.73;;;12.52;;
25207;SDS011;13153;52.316;21.166;2023-06-04T00:04:24;27.00;;;12.75;;
25207;SDS011;13153;52.316;21.166;2023-06-04T00:06:51;15.38;;;8.85;;
25207;SDS011;13153;52.316;21.166;2023-06-04T00:09:17;19.35;;;7.55;;
25207;SDS011;13153;52.316;21.166;2023-06-04T00:11:43;11.90;;;5.63;;
25207;SDS011;13153;52.316;21.166;2023-06-04T00:14:10;12.45;;;6.22;;
25207;SDS011;13153;52.316;21.166;2023-06-04T00:16:37;16.45;;;7.07;;
25207;SDS011;13153;52.316;21.166;2023-06-04T00:19:03;12.85;;;5.90;;
25207;SDS011;13153;52.316;21.166;2023-06-04T00:21:29;13.27;;;6.53;;
25207;SDS011;13153;52.316;21.166;2023-06-04T00:23:55;12.80;;;7.70;;
25207;SDS011;13153;52.316;21.166;2023-06-04T00:26:20;15.43;;;7.40;;
25207;SDS011;13153;52.316;21.166;2023-06-04T00:28:46;21.95;;;11.57;;
25207;SDS011;13153;52.316;21.166;2023-06-04T00:31:12;22.17;;;11.63;;
25207;SDS011;13153;52.316;21.166;2023-06-04T00:33:41;18.85;;;9.60;;
25207;SDS011;13153;52.316;21.166;2023-06-04T00:36:07;19.65;;;8.88;;
25207;SDS011;13153;52.316;21.166;2023-06-04T00:38:33;15.00;;;8.50;;
25207;SDS011;13153;52.316;21.166;2023-06-04T00:40:59;15.20;;;8.48;;
25207;SDS011;13153;52.316;21.166;2023-06-04T00:43:25;13.05;;;5.93;;
25207;SDS011;13153;52.316;21.166;2023-06-04T00:45:52;17.85;;;7.88;;
25207;SDS011;13153;52.316;21.166;2023-06-04T00:48:19;16.30;;;7.85;;
25207;SDS011;13153;52.316;21.166;2023-06-04T00:50:46;14.65;;;7.30;;
25207;SDS011;13153;52.316;21.166;2023-06-04T00:53:13;20.23;;;7.80;;
25207;SDS011;13153;52.316;21.166;2023-06-04T00:55:39;14.82;;;6.72;;
25207;SDS011;13153;52.316;21.166;2023-06-04T00:58:06;14.63;;;6.15;;
25207;SDS011;13153;52.316;21.166;2023-06-04T01:00:34;15.10;;;6.40;;
25207;SDS011;13153;52.316;21.166;2023-06-04T01:03:03;12.70;;;6.35;;
25207;SDS011;13153;52.316;21.166;2023-06-04T01:05:43;12.30;;;5.40;;
25207;SDS011;13153;52.316;21.166;2023-06-04T01:11:01;11.07;;;4.97;;
25207;SDS011;13153;52.316;21.166;2023-06-04T01:13:27;12.77;;;5.30;;
25207;SDS011;13153;52.316;21.166;2023-06-04T01:15:53;13.55;;;5.70;;
25207;SDS011;13153;52.316;21.166;2023-06-04T01:18:21;10.23;;;5.30;;
25207;SDS011;13153;52.316;21.166;2023-06-04T01:23:40;11.70;;;5.00;;
25207;SDS011;13153;52.316;21.166;2023-06-04T01:26:24;9.52;;;4.95;;
25207;SDS011;13153;52.316;21.166;2023-06-04T01:28:52;9.73;;;5.00;;
25207;SDS011;13153;52.316;21.166;2023-06-04T01:31:21;12.82;;;5.35;;
25207;SDS011;13153;52.316;21.166;2023-06-04T01:33:56;12.68;;;5.97;;
25207;SDS011;13153;52.316;21.166;2023-06-04T01:36:23;12.20;;;5.97;;
25207;SDS011;13153;52.316;21.166;2023-06-04T01:38:49;16.85;;;8.98;;
25207;SDS011;13153;52.316;21.166;2023-06-04T01:41:16;21.17;;;11.32;;
25207;SDS011;13153;52.316;21.166;2023-06-04T01:43:42;23.42;;;12.13;;
25207;SDS011;13153;52.316;21.166;2023-06-04T01:46:08;28.60;;;15.45;;
25207;SDS011;13153;52.316;21.166;2023-06-04T01:48:34;26.52;;;14.90;;
25207;SDS011;13153;52.316;21.166;2023-06-04T01:51:01;32.00;;;15.30;;
25207;SDS011;13153;52.316;21.166;2023-06-04T01:53:28;23.42;;;14.27;;
25207;SDS011;13153;52.316;21.166;2023-06-04T01:55:54;25.75;;;14.30;;
25207;SDS011;13153;52.316;21.166;2023-06-04T01:58:22;28.52;;;14.93;;
25207;SDS011;13153;52.316;21.166;2023-06-04T02:00:51;37.85;;;18.65;;
25207;SDS011;13153;52.316;21.166;2023-06-04T02:03:25;35.70;;;19.40;;
25207;SDS011;13153;52.316;21.166;2023-06-04T02:05:51;37.42;;;18.38;;
25207;SDS011;13153;52.316;21.166;2023-06-04T02:08:17;40.55;;;19.58;;
25207;SDS011;13153;52.316;21.166;2023-06-04T02:10:46;32.83;;;18.15;;
25207;SDS011;13153;52.316;21.166;2023-06-04T02:13:13;36.45;;;18.55;;
25207;SDS011;13153;52.316;21.166;2023-06-04T02:15:40;35.90;;;18.60;;
25207;SDS011;13153;52.316;21.166;2023-06-04T02:18:13;41.67;;;20.42;;
25207;SDS011;13153;52.316;21.166;2023-06-04T02:20:45;44.50;;;21.15;;
25207;SDS011;13153;52.316;21.166;2023-06-04T02:23:11;47.92;;;22.23;;
25207;SDS011;13153;52.316;21.166;2023-06-04T02:25:39;50.20;;;23.75;;
25207;SDS011;13153;52.316;21.166;2023-06-04T02:28:06;55.40;;;24.25;;
25207;SDS011;13153;52.316;21.166;2023-06-04T02:30:33;50.67;;;24.70;;
25207;SDS011;13153;52.316;21.166;2023-06-04T02:32:59;50.80;;;24.70;;
25207;SDS011;13153;52.316;21.166;2023-06-04T02:35:26;53.13;;;25.50;;
25207;SDS011;13153;52.316;21.166;2023-06-04T02:37:53;75.60;;;34.40;;
25207;SDS011;13153;52.316;21.166;2023-06-04T02:40:21;51.17;;;24.55;;
25207;SDS011;13153;52.316;21.166;2023-06-04T02:42:47;49.83;;;24.15;;
25207;SDS011;13153;52.316;21.166;2023-06-04T02:45:12;72.53;;;31.95;;
25207;SDS011;13153;52.316;21.166;2023-06-04T02:47:38;61.58;;;28.83;;
25207;SDS011;13153;52.316;21.166;2023-06-04T02:50:04;48.40;;;22.70;;
25207;SDS011;13153;52.316;21.166;2023-06-04T02:52:31;65.32;;;30.65;;
25207;SDS011;13153;52.316;21.166;2023-06-04T02:54:58;73.40;;;33.83;;
25207;SDS011;13153;52.316;21.166;2023-06-04T02:57:23;64.03;;;29.20;;
25207;SDS011;13153;52.316;21.166;2023-06-04T02:59:49;71.25;;;30.77;;
25207;SDS011;13153;52.316;21.166;2023-06-04T03:02:16;64.15;;;30.63;;
25207;SDS011;13153;52.316;21.166;2023-06-04T03:04:42;68.60;;;32.22;;
25207;SDS011;13153;52.316;21.166;2023-06-04T03:07:09;89.38;;;42.83;;
25207;SDS011;13153;52.316;21.166;2023-06-04T03:09:36;76.32;;;35.20;;
25207;SDS011;13153;52.316;21.166;2023-06-04T03:12:02;80.70;;;36.83;;
25207;SDS011;13153;52.316;21.166;2023-06-04T03:14:29;71.28;;;32.60;;
25207;SDS011;13153;52.316;21.166;2023-06-04T03:17:00;76.57;;;35.85;;
25207;SDS011;13153;52.316;21.166;2023-06-04T03:19:35;57.83;;;25.23;;
25207;SDS011;13153;52.316;21.166;2023-06-04T03:22:03;58.58;;;27.42;;
25207;SDS011;13153;52.316;21.166;2023-06-04T03:24:34;52.05;;;23.88;;
25207;SDS011;13153;52.316;21.166;2023-06-04T03:27:02;51.97;;;26.23;;
25207;SDS011;13153;52.316;21.166;2023-06-04T03:29:30;75.30;;;35.83;;
25207;SDS011;13153;52.316;21.166;2023-06-04T03:31:57;216.52;;;85.03;;
25207;SDS011;13153;52.316;21.166;2023-06-04T03:34:23;153.95;;;63.78;;
25207;SDS011;13153;52.316;21.166;2023-06-04T03:36:50;120.47;;;49.28;;
25207;SDS011;13153;52.316;21.166;2023-06-04T03:39:20;107.20;;;44.72;;
25207;SDS011;13153;52.316;21.166;2023-06-04T03:41:46;99.28;;;42.55;;
25207;SDS011;13153;52.316;21.166;2023-06-04T03:44:13;92.13;;;37.78;;
25207;SDS011;13153;52.316;21.166;2023-06-04T03:46:43;96.78;;;37.70;;
25207;SDS011;13153;52.316;21.166;2023-06-04T03:49:10;83.82;;;35.90;;
25207;SDS011;13153;52.316;21.166;2023-06-04T03:51:38;65.90;;;26.00;;
25207;SDS011;13153;52.316;21.166;2023-06-04T03:54:04;59.72;;;25.33;;
25207;SDS011;13153;52.316;21.166;2023-06-04T03:56:31;52.05;;;23.85;;
25207;SDS011;13153;52.316;21.166;2023-06-04T03:58:57;28.27;;;13.52;;
25207;SDS011;13153;52.316;21.166;2023-06-04T04:01:23;42.45;;;18.77;;
25207;SDS011;13153;52.316;21.166;2023-06-04T04:03:50;28.35;;;13.20;;
25207;SDS011;13153;52.316;21.166;2023-06-04T04:06:17;30.70;;;13.82;;
25207;SDS011;13153;52.316;21.166;2023-06-04T04:08:44;36.50;;;14.70;;
25207;SDS011;13153;52.316;21.166;2023-06-04T04:11:13;30.88;;;13.85;;
25207;SDS011;13153;52.316;21.166;2023-06-04T04:13:40;43.35;;;18.77;;
25207;SDS011;13153;52.316;21.166;2023-06-04T04:16:07;65.40;;;28.33;;
25207;SDS011;13153;52.316;21.166;2023-06-04T04:18:33;63.95;;;27.80;;
25207;SDS011;13153;52.316;21.166;2023-06-04T04:21:01;76.50;;;32.53;;
25207;SDS011;13153;52.316;21.166;2023-06-04T04:23:28;86.90;;;38.17;;
25207;SDS011;13153;52.316;21.166;2023-06-04T04:25:57;95.93;;;39.55;;
25207;SDS011;13153;52.316;21.166;2023-06-04T04:28:24;94.00;;;40.67;;
25207;SDS011;13153;52.316;21.166;2023-06-04T04:30:56;91.15;;;39.88;;
25207;SDS011;13153;52.316;21.166;2023-06-04T04:33:25;100.57;;;46.38;;
25207;SDS011;13153;52.316;21.166;2023-06-04T04:35:51;90.10;;;39.08;;
25207;SDS011;13153;52.316;21.166;2023-06-04T04:38:21;75.25;;;35.55;;
25207;SDS011;13153;52.316;21.166;2023-06-04T04:40:49;60.80;;;26.65;;
25207;SDS011;13153;52.316;21.166;2023-06-04T04:43:17;52.28;;;24.75;;
25207;SDS011;13153;52.316;21.166;2023-06-04T04:45:54;57.53;;;26.25;;
25207;SDS011;13153;52.316;21.166;2023-06-04T04:48:20;60.25;;;22.90;;
25207;SDS011;13153;52.316;21.166;2023-06-04T04:50:45;40.05;;;19.00;;
25207;SDS011;13153;52.316;21.166;2023-06-04T04:53:11;36.22;;;16.42;;
25207;SDS011;13153;52.316;21.166;2023-06-04T04:55:37;33.65;;;15.63;;
25207;SDS011;13153;52.316;21.166;2023-06-04T04:58:02;30.25;;;13.55;;
25207;SDS011;13153;52.316;21.166;2023-06-04T05:00:29;18.20;;;8.75;;
25207;SDS011;13153;52.316;21.166;2023-06-04T05:02:55;18.83;;;9.75;;
25207;SDS011;13153;52.316;21.166;2023-06-04T05:05:21;15.32;;;8.32;;
25207;SDS011;13153;52.316;21.166;2023-06-04T05:07:47;14.95;;;6.30;;
25207;SDS011;13153;52.316;21.166;2023-06-04T05:10:12;11.63;;;6.07;;
25207;SDS011;13153;52.316;21.166;2023-06-04T05:12:38;10.13;;;5.03;;
25207;SDS011;13153;52.316;21.166;2023-06-04T05:15:05;9.32;;;4.22;;
25207;SDS011;13153;52.316;21.166;2023-06-04T05:17:32;7.53;;;4.00;;
25207;SDS011;13153;52.316;21.166;2023-06-04T05:19:58;6.70;;;4.35;;
25207;SDS011;13153;52.316;21.166;2023-06-04T05:22:36;9.38;;;4.00;;
25207;SDS011;13153;52.316;21.166;2023-06-04T05:25:03;9.05;;;4.05;;
25207;SDS011;13153;52.316;21.166;2023-06-04T05:27:30;8.40;;;3.70;;
25207;SDS011;13153;52.316;21.166;2023-06-04T05:29:57;9.13;;;3.20;;
25207;SDS011;13153;52.316;21.166;2023-06-04T05:32:23;5.47;;;3.10;;
25207;SDS011;13153;52.316;21.166;2023-06-04T05:34:53;5.50;;;2.80;;
25207;SDS011;13153;52.316;21.166;2023-06-04T05:37:23;4.95;;;3.17;;
25207;SDS011;13153;52.316;21.166;2023-06-04T05:39:52;6.65;;;3.00;;
25207;SDS011;13153;52.316;21.166;2023-06-04T05:42:18;8.82;;;3.33;;
25207;SDS011;13153;52.316;21.166;2023-06-04T05:44:45;4.30;;;2.70;;
25207;SDS011;13153;52.316;21.166;2023-06-04T05:47:10;6.07;;;2.83;;
25207;SDS011;13153;52.316;21.166;2023-06-04T05:49:36;3.92;;;2.83;;
25207;SDS011;13153;52.316;21.166;2023-06-04T05:52:02;7.20;;;2.70;;
25207;SDS011;13153;52.316;21.166;2023-06-04T05:54:29;5.13;;;3.47;;
25207;SDS011;13153;52.316;21.166;2023-06-04T05:56:55;3.58;;;2.38;;
25207;SDS011;13153;52.316;21.166;2023-06-04T05:59:21;4.25;;;2.75;;
25207;SDS011;13153;52.316;21.166;2023-06-04T06:01:48;3.72;;;2.20;;
25207;SDS011;13153;52.316;21.166;2023-06-04T06:04:15;4.05;;;2.85;;
25207;SDS011;13153;52.316;21.166;2023-06-04T06:06:41;4.68;;;2.42;;
25207;SDS011;13153;52.316;21.166;2023-06-04T06:09:09;4.53;;;2.30;;
25207;SDS011;13153;52.316;21.166;2023-06-04T06:11:35;4.00;;;2.60;;
25207;SDS011;13153;52.316;21.166;2023-06-04T06:14:02;5.80;;;2.58;;
25207;SDS011;13153;52.316;21.166;2023-06-04T06:16:27;7.32;;;2.10;;
25207;SDS011;13153;52.316;21.166;2023-06-04T06:18:53;3.10;;;1.95;;
25207;SDS011;13153;52.316;21.166;2023-06-04T06:21:19;5.72;;;2.20;;
25207;SDS011;13153;52.316;21.166;2023-06-04T06:23:45;5.70;;;2.35;;
25207;SDS011;13153;52.316;21.166;2023-06-04T06:26:11;10.40;;;2.10;;
25207;SDS011;13153;52.316;21.166;2023-06-04T06:28:38;2.50;;;1.75;;
25207;SDS011;13153;52.316;21.166;2023-06-04T06:31:04;5.55;;;2.00;;
25207;SDS011;13153;52.316;21.166;2023-06-04T06:33:30;4.57;;;2.20;;
25207;SDS011;13153;52.316;21.166;2023-06-04T06:35:56;3.45;;;1.70;;
25207;SDS011;13153;52.316;21.166;2023-06-04T06:38:25;2.13;;;1.60;;
25207;SDS011;13153;52.316;21.166;2023-06-04T06:40:51;3.85;;;1.33;;
25207;SDS011;13153;52.316;21.166;2023-06-04T06:43:17;2.35;;;1.27;;
25207;SDS011;13153;52.316;21.166;2023-06-04T06:45:43;2.53;;;1.33;;
25207;SDS011;13153;52.316;21.166;2023-06-04T06:48:09;3.35;;;1.40;;
25207;SDS011;13153;52.316;21.166;2023-06-04T06:50:35;4.53;;;1.40;;
25207;SDS011;13153;52.316;21.166;2023-06-04T06:53:01;5.60;;;1.75;;
25207;SDS011;13153;52.316;21.166;2023-06-04T06:55:28;1.88;;;1.40;;
25207;SDS011;13153;52.316;21.166;2023-06-04T06:57:54;4.63;;;1.55;;
25207;SDS011;13153;52.316;21.166;2023-06-04T07:00:19;2.35;;;1.20;;
25207;SDS011;13153;52.316;21.166;2023-06-04T07:02:45;3.75;;;1.33;;
25207;SDS011;13153;52.316;21.166;2023-06-04T07:05:11;3.97;;;1.20;;
25207;SDS011;13153;52.316;21.166;2023-06-04T07:07:39;1.45;;;1.02;;
25207;SDS011;13153;52.316;21.166;2023-06-04T07:10:05;2.50;;;1.30;;
25207;SDS011;13153;52.316;21.166;2023-06-04T07:12:31;1.75;;;1.27;;
25207;SDS011;13153;52.316;21.166;2023-06-04T07:14:57;3.03;;;1.48;;
25207;SDS011;13153;52.316;21.166;2023-06-04T07:17:23;2.88;;;1.10;;
25207;SDS011;13153;52.316;21.166;2023-06-04T07:19:49;2.63;;;1.25;;
25207;SDS011;13153;52.316;21.166;2023-06-04T07:22:15;4.07;;;1.02;;
25207;SDS011;13153;52.316;21.166;2023-06-04T07:24:41;4.63;;;1.38;;
25207;SDS011;13153;52.316;21.166;2023-06-04T07:27:14;3.42;;;1.20;;
25207;SDS011;13153;52.316;21.166;2023-06-04T07:29:40;3.33;;;1.17;;
25207;SDS011;13153;52.316;21.166;2023-06-04T07:32:09;2.35;;;1.10;;
25207;SDS011;13153;52.316;21.166;2023-06-04T07:34:37;2.63;;;1.08;;
25207;SDS011;13153;52.316;21.166;2023-06-04T07:37:04;2.97;;;1.10;;
25207;SDS011;13153;52.316;21.166;2023-06-04T07:39:30;3.13;;;1.02;;
25207;SDS011;13153;52.316;21.166;2023-06-04T07:41:56;2.30;;;1.00;;
25207;SDS011;13153;52.316;21.166;2023-06-04T07:44:22;2.70;;;1.00;;
25207;SDS011;13153;52.316;21.166;2023-06-04T07:46:48;3.47;;;1.80;;
25207;SDS011;13153;52.316;21.166;2023-06-04T07:49:14;4.65;;;1.30;;
25207;SDS011;13153;52.316;21.166;2023-06-04T07:51:40;2.13;;;1.20;;
25207;SDS011;13153;52.316;21.166;2023-06-04T07:54:06;2.63;;;1.27;;
25207;SDS011;13153;52.316;21.166;2023-06-04T07:56:32;2.53;;;1.20;;
25207;SDS011;13153;52.316;21.166;2023-06-04T07:58:58;3.40;;;1.13;;
25207;SDS011;13153;52.316;21.166;2023-06-04T08:01:24;4.18;;;1.38;;
25207;SDS011;13153;52.316;21.166;2023-06-04T08:03:49;1.45;;;1.00;;
25207;SDS011;13153;52.316;21.166;2023-06-04T08:06:16;2.85;;;1.08;;
25207;SDS011;13153;52.316;21.166;2023-06-04T08:08:42;1.42;;;1.25;;
25207;SDS011;13153;52.316;21.166;2023-06-04T08:11:13;1.90;;;1.40;;
25207;SDS011;13153;52.316;21.166;2023-06-04T08:13:40;1.58;;;1.02;;
25207;SDS011;13153;52.316;21.166;2023-06-04T08:16:07;3.15;;;1.20;;
25207;SDS011;13153;52.316;21.166;2023-06-04T08:18:37;2.05;;;1.20;;
25207;SDS011;13153;52.316;21.166;2023-06-04T08:21:10;2.28;;;1.40;;
25207;SDS011;13153;52.316;21.166;2023-06-04T08:23:37;1.63;;;1.15;;
25207;SDS011;13153;52.316;21.166;2023-06-04T08:26:03;1.20;;;1.10;;
25207;SDS011;13153;52.316;21.166;2023-06-04T08:28:28;2.33;;;1.35;;
25207;SDS011;13153;52.316;21.166;2023-06-04T08:30:54;2.60;;;1.23;;
25207;SDS011;13153;52.316;21.166;2023-06-04T08:33:20;5.47;;;1.00;;
25207;SDS011;13153;52.316;21.166;2023-06-04T08:35:46;1.90;;;1.10;;
25207;SDS011;13153;52.316;21.166;2023-06-04T08:38:12;1.63;;;1.20;;
25207;SDS011;13153;52.316;21.166;2023-06-04T08:40:37;1.17;;;1.00;;
25207;SDS011;13153;52.316;21.166;2023-06-04T08:43:03;3.03;;;0.93;;
25207;SDS011;13153;52.316;21.166;2023-06-04T08:45:31;1.80;;;1.20;;
25207;SDS011;13153;52.316;21.166;2023-06-04T08:48:03;2.70;;;1.10;;
25207;SDS011;13153;52.316;21.166;2023-06-04T08:50:38;2.90;;;1.13;;
25207;SDS011;13153;52.316;21.166;2023-06-04T08:53:10;2.88;;;0.82;;
25207;SDS011;13153;52.316;21.166;2023-06-04T08:55:40;1.30;;;1.15;;
25207;SDS011;13153;52.316;21.166;2023-06-04T08:58:06;1.10;;;0.95;;
25207;SDS011;13153;52.316;21.166;2023-06-04T09:00:35;3.67;;;1.20;;
25207;SDS011;13153;52.316;21.166;2023-06-04T09:03:02;2.30;;;1.40;;
25207;SDS011;13153;52.316;21.166;2023-06-04T09:05:28;1.58;;;1.02;;
25207;SDS011;13153;52.316;21.166;2023-06-04T09:07:55;3.85;;;1.20;;
25207;SDS011;13153;52.316;21.166;2023-06-04T09:10:28;1.98;;;1.10;;
25207;SDS011;13153;52.316;21.166;2023-06-04T09:12:56;2.75;;;1.10;;
25207;SDS011;13153;52.316;21.166;2023-06-04T09:15:26;4.45;;;1.30;;
25207;SDS011;13153;52.316;21.166;2023-06-04T09:17:52;1.42;;;1.17;;
25207;SDS011;13153;52.316;21.166;2023-06-04T09:20:19;2.67;;;1.08;;
25207;SDS011;13153;52.316;21.166;2023-06-04T09:22:46;4.00;;;1.55;;
25207;SDS011;13153;52.316;21.166;2023-06-04T09:25:22;3.85;;;1.30;;
25207;SDS011;13153;52.316;21.166;2023-06-04T09:27:56;2.95;;;1.13;;
25207;SDS011;13153;52.316;21.166;2023-06-04T09:30:31;1.20;;;1.10;;
25207;SDS011;13153;52.316;21.166;2023-06-04T09:33:05;1.75;;;1.08;;
25207;SDS011;13153;52.316;21.166;2023-06-04T09:35:33;2.20;;;0.95;;
25207;SDS011;13153;52.316;21.166;2023-06-04T09:37:59;2.00;;;1.05;;
25207;SDS011;13153;52.316;21.166;2023-06-04T09:40:34;3.88;;;1.33;;
25207;SDS011;13153;52.316;21.166;2023-06-04T09:43:02;5.18;;;1.42;;
25207;SDS011;13153;52.316;21.166;2023-06-04T09:45:28;1.58;;;1.30;;
25207;SDS011;13153;52.316;21.166;2023-06-04T09:47:57;3.40;;;1.10;;
25207;SDS011;13153;52.316;21.166;2023-06-04T09:50:27;3.65;;;1.42;;
25207;SDS011;13153;52.316;21.166;2023-06-04T09:53:17;2.50;;;1.40;;
25207;SDS011;13153;52.316;21.166;2023-06-04T09:55:57;4.65;;;3.10;;
25207;SDS011;13153;52.316;21.166;2023-06-04T09:58:26;2.22;;;1.40;;
25207;SDS011;13153;52.316;21.166;2023-06-04T10:00:53;8.30;;;1.40;;
25207;SDS011;13153;52.316;21.166;2023-06-04T10:03:25;6.13;;;1.77;;
25207;SDS011;13153;52.316;21.166;2023-06-04T10:05:58;8.38;;;2.45;;
25207;SDS011;13153;52.316;21.166;2023-06-04T10:08:27;9.75;;;2.33;;
25207;SDS011;13153;52.316;21.166;2023-06-04T10:10:55;9.70;;;2.22;;
25207;SDS011;13153;52.316;21.166;2023-06-04T10:13:29;4.35;;;1.85;;
25207;SDS011;13153;52.316;21.166;2023-06-04T10:16:03;13.90;;;2.33;;
25207;SDS011;13153;52.316;21.166;2023-06-04T10:18:32;6.13;;;1.70;;
25207;SDS011;13153;52.316;21.166;2023-06-04T10:20:59;3.08;;;1.70;;
25207;SDS011;13153;52.316;21.166;2023-06-04T10:23:25;9.68;;;2.10;;
25207;SDS011;13153;52.316;21.166;2023-06-04T10:25:52;2.60;;;1.30;;
25207;SDS011;13153;52.316;21.166;2023-06-04T10:28:19;4.93;;;1.27;;
25207;SDS011;13153;52.316;21.166;2023-06-04T10:30:47;2.05;;;1.38;;
25207;SDS011;13153;52.316;21.166;2023-06-04T10:33:18;2.22;;;1.20;;
25207;SDS011;13153;52.316;21.166;2023-06-04T10:35:49;1.45;;;0.93;;
25207;SDS011;13153;52.316;21.166;2023-06-04T10:38:21;3.92;;;1.50;;
25207;SDS011;13153;52.316;21.166;2023-06-04T10:40:47;4.82;;;2.67;;
25207;SDS011;13153;52.316;21.166;2023-06-04T10:43:13;3.55;;;2.15;;
25207;SDS011;13153;52.316;21.166;2023-06-04T10:45:44;5.70;;;2.10;;
25207;SDS011;13153;52.316;21.166;2023-06-04T10:48:11;2.35;;;1.00;;
25207;SDS011;13153;52.316;21.166;2023-06-04T10:50:50;7.00;;;4.68;;
25207;SDS011;13153;52.316;21.166;2023-06-04T10:53:18;1.60;;;0.90;;
25207;SDS011;13153;52.316;21.166;2023-06-04T10:55:45;1.83;;;1.00;;
25207;SDS011;13153;52.316;21.166;2023-06-04T10:58:13;3.50;;;1.40;;
25207;SDS011;13153;52.316;21.166;2023-06-04T11:00:43;4.53;;;2.97;;
25207;SDS011;13153;52.316;21.166;2023-06-04T11:03:12;4.72;;;1.60;;
25207;SDS011;13153;52.316;21.166;2023-06-04T11:05:42;1.42;;;1.10;;
25207;SDS011;13153;52.316;21.166;2023-06-04T11:08:11;5.57;;;2.15;;
25207;SDS011;13153;52.316;21.166;2023-06-04T11:10:42;5.35;;;2.28;;
25207;SDS011;13153;52.316;21.166;2023-06-04T11:13:10;3.00;;;1.50;;
25207;SDS011;13153;52.316;21.166;2023-06-04T11:15:46;2.90;;;1.10;;
25207;SDS011;13153;52.316;21.166;2023-06-04T11:18:21;1.80;;;1.40;;
25207;SDS011;13153;52.316;21.166;2023-06-04T11:20:49;3.17;;;1.60;;
25207;SDS011;13153;52.316;21.166;2023-06-04T11:23:24;3.08;;;1.20;;
25207;SDS011;13153;52.316;21.166;2023-06-04T11:25:52;3.13;;;1.38;;
25207;SDS011;13153;52.316;21.166;2023-06-04T11:28:19;1.77;;;1.00;;
25207;SDS011;13153;52.316;21.166;2023-06-04T11:30:58;1.00;;;0.90;;
25207;SDS011;13153;52.316;21.166;2023-06-04T11:33:27;2.08;;;1.30;;
25207;SDS011;13153;52.316;21.166;2023-06-04T11:35:55;4.55;;;2.45;;
25207;SDS011;13153;52.316;21.166;2023-06-04T11:38:21;5.35;;;2.40;;
25207;SDS011;13153;52.316;21.166;2023-06-04T11:40:57;6.35;;;2.55;;
25207;SDS011;13153;52.316;21.166;2023-06-04T11:43:25;2.47;;;1.52;;
25207;SDS011;13153;52.316;21.166;2023-06-04T11:45:52;3.88;;;1.30;;
25207;SDS011;13153;52.316;21.166;2023-06-04T11:48:18;1.48;;;1.00;;
25207;SDS011;13153;52.316;21.166;2023-06-04T11:50:46;3.75;;;1.00;;
25207;SDS011;13153;52.316;21.166;2023-06-04T11:53:11;1.10;;;0.82;;
25207;SDS011;13153;52.316;21.166;2023-06-04T11:55:38;3.65;;;1.27;;
25207;SDS011;13153;52.316;21.166;2023-06-04T11:58:05;2.92;;;0.90;;
25207;SDS011;13153;52.316;21.166;2023-06-04T12:00:31;2.83;;;1.05;;
25207;SDS011;13153;52.316;21.166;2023-06-04T12:02:57;3.17;;;1.15;;
25207;SDS011;13153;52.316;21.166;2023-06-04T12:05:30;4.07;;;1.83;;
25207;SDS011;13153;52.316;21.166;2023-06-04T12:08:06;2.40;;;1.70;;
25207;SDS011;13153;52.316;21.166;2023-06-04T12:10:38;3.30;;;1.38;;
25207;SDS011;13153;52.316;21.166;2023-06-04T12:13:06;1.45;;;1.10;;
25207;SDS011;13153;52.316;21.166;2023-06-04T12:15:34;1.25;;;0.98;;
25207;SDS011;13153;52.316;21.166;2023-06-04T12:18:00;1.00;;;0.90;;
25207;SDS011;13153;52.316;21.166;2023-06-04T12:21:01;3.97;;;1.33;;
25207;SDS011;13153;52.316;21.166;2023-06-04T12:23:21;2.67;;;1.30;;
25207;SDS011;13153;52.316;21.166;2023-06-04T12:25:49;1.90;;;1.15;;
25207;SDS011;13153;52.316;21.166;2023-06-04T12:28:19;4.07;;;1.08;;
25207;SDS011;13153;52.316;21.166;2023-06-04T12:30:45;1.65;;;1.08;;
25207;SDS011;13153;52.316;21.166;2023-06-04T12:33:11;7.40;;;4.32;;
25207;SDS011;13153;52.316;21.166;2023-06-04T12:35:37;1.20;;;1.05;;
25207;SDS011;13153;52.316;21.166;2023-06-04T12:38:03;2.30;;;1.60;;
25207;SDS011;13153;52.316;21.166;2023-06-04T12:40:34;2.25;;;1.30;;
25207;SDS011;13153;52.316;21.166;2023-06-04T12:43:00;3.22;;;1.48;;
25207;SDS011;13153;52.316;21.166;2023-06-04T12:45:25;2.00;;;1.30;;
25207;SDS011;13153;52.316;21.166;2023-06-04T12:47:51;6.07;;;1.48;;
25207;SDS011;13153;52.316;21.166;2023-06-04T12:50:17;1.92;;;1.00;;
25207;SDS011;13153;52.316;21.166;2023-06-04T12:52:43;1.55;;;1.17;;
25207;SDS011;13153;52.316;21.166;2023-06-04T12:55:09;3.95;;;1.35;;
25207;SDS011;13153;52.316;21.166;2023-06-04T12:57:34;3.75;;;1.55;;
25207;SDS011;13153;52.316;21.166;2023-06-04T13:00:00;10.38;;;2.42;;
25207;SDS011;13153;52.316;21.166;2023-06-04T13:02:26;4.20;;;1.73;;
25207;SDS011;13153;52.316;21.166;2023-06-04T13:04:52;1.48;;;1.02;;
25207;SDS011;13153;52.316;21.166;2023-06-04T13:07:21;3.38;;;1.23;;
25207;SDS011;13153;52.316;21.166;2023-06-04T13:09:47;5.25;;;1.10;;
25207;SDS011;13153;52.316;21.166;2023-06-04T13:12:13;2.47;;;1.20;;
25207;SDS011;13153;52.316;21.166;2023-06-04T13:14:39;2.17;;;1.15;;
25207;SDS011;13153;52.316;21.166;2023-06-04T13:17:04;4.25;;;1.25;;
25207;SDS011;13153;52.316;21.166;2023-06-04T13:19:30;2.13;;;1.17;;
25207;SDS011;13153;52.316;21.166;2023-06-04T13:21:56;2.58;;;0.98;;
25207;SDS011;13153;52.316;21.166;2023-06-04T13:24:22;1.77;;;1.25;;
25207;SDS011;13153;52.316;21.166;2023-06-04T13:26:48;9.05;;;2.00;;
25207;SDS011;13153;52.316;21.166;2023-06-04T13:29:14;4.20;;;2.60;;
25207;SDS011;13153;52.316;21.166;2023-06-04T13:31:41;2.20;;;1.17;;
25207;SDS011;13153;52.316;21.166;2023-06-04T13:34:07;7.32;;;1.73;;
25207;SDS011;13153;52.316;21.166;2023-06-04T13:36:32;2.15;;;1.65;;
25207;SDS011;13153;52.316;21.166;2023-06-04T13:38:58;1.65;;;1.20;;
25207;SDS011;13153;52.316;21.166;2023-06-04T13:41:24;2.78;;;1.40;;
25207;SDS011;13153;52.316;21.166;2023-06-04T13:43:50;4.07;;;2.35;;
25207;SDS011;13153;52.316;21.166;2023-06-04T13:46:16;4.43;;;2.17;;
25207;SDS011;13153;52.316;21.166;2023-06-04T13:48:41;5.80;;;2.67;;
25207;SDS011;13153;52.316;21.166;2023-06-04T13:51:07;3.45;;;1.70;;
25207;SDS011;13153;52.316;21.166;2023-06-04T13:53:33;3.65;;;1.52;;
25207;SDS011;13153;52.316;21.166;2023-06-04T13:55:59;4.43;;;1.60;;
25207;SDS011;13153;52.316;21.166;2023-06-04T13:58:25;2.30;;;1.85;;
25207;SDS011;13153;52.316;21.166;2023-06-04T14:00:51;4.70;;;1.40;;
25207;SDS011;13153;52.316;21.166;2023-06-04T14:03:17;4.22;;;1.50;;
25207;SDS011;13153;52.316;21.166;2023-06-04T14:05:44;4.20;;;1.70;;
25207;SDS011;13153;52.316;21.166;2023-06-04T14:08:10;3.47;;;1.30;;
25207;SDS011;13153;52.316;21.166;2023-06-04T14:10:37;3.72;;;1.40;;
25207;SDS011;13153;52.316;21.166;2023-06-04T14:13:06;2.05;;;1.60;;
25207;SDS011;13153;52.316;21.166;2023-06-04T14:15:33;5.07;;;1.65;;
25207;SDS011;13153;52.316;21.166;2023-06-04T14:18:00;3.33;;;1.40;;
25207;SDS011;13153;52.316;21.166;2023-06-04T14:20:26;3.53;;;1.30;;
25207;SDS011;13153;52.316;21.166;2023-06-04T14:22:52;3.33;;;1.25;;
25207;SDS011;13153;52.316;21.166;2023-06-04T14:25:18;5.10;;;1.63;;
25207;SDS011;13153;52.316;21.166;2023-06-04T14:27:44;2.47;;;1.30;;
25207;SDS011;13153;52.316;21.166;2023-06-04T14:30:09;2.88;;;1.27;;
25207;SDS011;13153;52.316;21.166;2023-06-04T14:32:36;1.38;;;1.02;;
25207;SDS011;13153;52.316;21.166;2023-06-04T14:35:02;3.80;;;1.13;;